Time,TemperatureF,DewpointF,PressureIn,WindDirection,WindDirectionDegrees,WindSpeedMPH,WindSpeedGustMPH,Humidity,HourlyPrecipIn,Conditions,Clouds,dailyrainin,SoftwareType,DateUTC
2013-01-10 09:33:00,78.0,67.0,30.31,East,89,6.0,13.0,70,0.00,,,0.00,,2013-01-10 14:33:00,
2013-01-10 09:43:00,78.0,67.0,30.31,East,89,6.0,13.0,70,0.00,,,0.00,,2013-01-10 14:43:00,
2013-01-10 09:53:00,78.0,67.0,30.31,ENE,72,4.0,11.0,69,0.00,,,0.00,,2013-01-10 14:53:00,
2013-01-10 10:03:00,78.0,67.0,30.30,ESE,103,4.0,10.0,69,0.00,,,0.00,,2013-01-10 15:03:00,
2013-01-10 10:12:00,78.0,67.0,30.30,ESE,103,4.0,10.0,69,0.00,,,0.00,,2013-01-10 15:12:00,
2013-01-10 10:23:00,79.0,69.0,30.30,East,86,2.0,10.0,71,0.00,,,0.00,,2013-01-10 15:23:00,
2013-01-10 10:33:00,79.0,68.0,30.29,ESE,104,7.0,13.0,70,0.00,,,0.00,,2013-01-10 15:33:00,
2013-01-10 10:43:00,79.0,68.0,30.29,ESE,104,7.0,13.0,70,0.00,,,0.00,,2013-01-10 15:43:00,
2013-01-10 10:53:00,78.0,69.0,30.29,SW,215,6.0,12.0,73,0.00,,,0.00,,2013-01-10 15:53:00,
2013-01-10 11:03:00,78.0,68.0,30.29,ESE,104,5.0,10.0,72,0.00,,,0.00,,2013-01-10 16:03:00,
2013-01-10 11:13:00,78.0,68.0,30.29,ESE,104,5.0,10.0,72,0.00,,,0.00,,2013-01-10 16:13:00,
2013-01-10 11:23:00,79.0,68.0,30.28,ESE,108,4.0,10.0,68,0.00,,,0.00,,2013-01-10 16:23:00,
2013-01-10 11:33:00,78.0,67.0,30.28,ESE,104,4.0,14.0,69,0.00,,,0.00,,2013-01-10 16:33:00,
2013-01-10 11:43:00,78.0,67.0,30.28,ESE,104,4.0,14.0,69,0.00,,,0.00,,2013-01-10 16:43:00,
2013-01-10 11:53:00,79.0,67.0,30.27,ENE,63,6.0,13.0,66,0.00,,,0.00,,2013-01-10 16:53:00,
2013-01-10 12:03:00,79.0,67.0,30.26,East,91,5.0,11.0,67,0.00,,,0.00,,2013-01-10 17:03:00,
2013-01-10 12:12:00,79.0,67.0,30.26,East,91,5.0,11.0,67,0.00,,,0.00,,2013-01-10 17:12:00,
2013-01-10 12:22:00,80.0,67.0,30.24,East,88,6.0,14.0,65,0.00,,,0.00,,2013-01-10 17:22:00,
2013-01-10 12:33:00,80.0,67.0,30.23,ESE,110,6.0,13.0,65,0.00,,,0.00,,2013-01-10 17:33:00,
2013-01-10 12:42:00,80.0,67.0,30.23,ESE,110,6.0,13.0,65,0.00,,,0.00,,2013-01-10 17:42:00,
2013-01-10 12:53:00,81.0,68.0,30.22,ESE,112,4.0,13.0,65,0.00,,,0.00,,2013-01-10 17:53:00,
2013-01-10 13:03:00,81.0,67.0,30.22,ESE,113,7.0,12.0,62,0.00,,,0.00,,2013-01-10 18:03:00,
2013-01-10 13:12:00,80.0,67.0,30.21,East,85,3.0,11.0,64,0.00,,,0.00,,2013-01-10 18:12:00,
2013-01-10 13:23:00,80.0,67.0,30.21,East,85,3.0,11.0,64,0.00,,,0.00,,2013-01-10 18:23:00,
2013-01-10 13:33:00,80.0,68.0,30.20,ESE,111,5.0,12.0,66,0.00,,,0.00,,2013-01-10 18:33:00,
2013-01-10 13:43:00,80.0,68.0,30.20,ESE,121,5.0,12.0,66,0.00,,,0.00,,2013-01-10 18:43:00,
2013-01-10 13:53:00,80.0,68.0,30.20,ESE,121,5.0,12.0,66,0.00,,,0.00,,2013-01-10 18:53:00,
2013-01-10 14:03:00,79.0,68.0,30.20,NE,56,4.0,13.0,68,0.00,,,0.00,,2013-01-10 19:03:00,
2013-01-10 14:13:00,78.0,66.0,30.20,East,91,7.0,18.0,67,0.00,,,0.00,,2013-01-10 19:13:00,
2013-01-10 14:23:00,78.0,66.0,30.20,East,91,7.0,18.0,67,0.00,,,0.00,,2013-01-10 19:23:00,
2013-01-10 14:33:00,78.0,67.0,30.20,ENE,65,6.0,14.0,70,0.00,,,0.00,,2013-01-10 19:33:00,
2013-01-10 14:43:00,78.0,67.0,30.20,ENE,65,6.0,14.0,70,0.00,,,0.00,,2013-01-10 19:43:00,
2013-01-10 14:53:00,78.0,68.0,30.21,East,86,3.0,12.0,71,0.00,,,0.00,,2013-01-10 19:53:00,
2013-01-10 15:03:00,78.0,68.0,30.21,ESE,121,4.0,11.0,72,0.00,,,0.00,,2013-01-10 20:03:00,
2013-01-10 15:13:00,78.0,68.0,30.21,ESE,114,6.0,12.0,72,0.00,,,0.00,,2013-01-10 20:13:00,
2013-01-10 15:24:00,78.0,68.0,30.21,ESE,114,6.0,12.0,72,0.00,,,0.00,,2013-01-10 20:24:00,
2013-01-10 15:33:00,79.0,69.0,30.22,NE,53,5.0,11.0,71,0.00,,,0.00,,2013-01-10 20:33:00,
2013-01-10 15:43:00,79.0,69.0,30.22,NE,53,5.0,11.0,71,0.00,,,0.00,,2013-01-10 20:43:00,
2013-01-10 15:53:00,80.0,70.0,30.22,East,84,2.0,10.0,71,0.00,,,0.00,,2013-01-10 20:53:00,
2013-01-10 16:04:00,79.0,70.0,30.23,East,86,4.0,11.0,73,0.00,,,0.00,,2013-01-10 21:04:00,
2013-01-10 16:13:00,78.0,69.0,30.24,East,100,4.0,11.0,74,0.00,,,0.00,,2013-01-10 21:13:00,
2013-01-10 16:23:00,78.0,69.0,30.24,East,100,4.0,11.0,74,0.00,,,0.00,,2013-01-10 21:23:00,
2013-01-10 16:33:00,79.0,70.0,30.24,SE,145,0.0,7.0,74,0.00,,,0.00,,2013-01-10 21:33:00,
2013-01-10 16:43:00,79.0,70.0,30.24,SE,145,0.0,7.0,74,0.00,,,0.00,,2013-01-10 21:43:00,
2013-01-10 16:53:00,78.0,69.0,30.25,East,87,2.0,9.0,74,0.00,,,0.00,,2013-01-10 21:53:00,
2013-01-10 17:03:00,78.0,69.0,30.25,East,91,2.0,10.0,75,0.00,,,0.00,,2013-01-10 22:03:00,
2013-01-10 17:13:00,77.0,69.0,30.25,East,84,0.0,5.0,77,0.00,,,0.00,,2013-01-10 22:13:00,
2013-01-10 17:26:00,77.0,69.0,30.25,East,84,0.0,5.0,77,0.00,,,0.00,,2013-01-10 22:26:00,
2013-01-10 17:33:00,77.0,69.0,30.25,ENE,74,2.0,6.0,77,0.00,,,0.00,,2013-01-10 22:33:00,
2013-01-10 17:43:00,77.0,69.0,30.25,ENE,74,2.0,6.0,77,0.00,,,0.00,,2013-01-10 22:43:00,
2013-01-10 18:03:00,76.0,69.0,30.26,East,85,2.0,7.0,79,0.00,,,0.00,,2013-01-10 23:03:00,
2013-01-10 18:13:00,76.0,69.0,30.26,East,92,1.0,5.0,80,0.00,,,0.00,,2013-01-10 23:13:00,
2013-01-10 18:23:00,76.0,69.0,30.26,East,92,1.0,5.0,80,0.00,,,0.00,,2013-01-10 23:23:00,
2013-01-10 18:33:00,75.0,69.0,30.27,East,94,0.0,2.0,81,0.00,,,0.00,,2013-01-10 23:33:00,
2013-01-10 18:43:00,75.0,69.0,30.27,East,94,0.0,2.0,81,0.00,,,0.00,,2013-01-10 23:43:00,
2013-01-10 18:53:00,75.0,69.0,30.27,ENE,72,1.0,4.0,82,0.00,,,0.00,,2013-01-10 23:53:00,
2013-01-10 19:03:00,75.0,69.0,30.27,East,82,0.0,2.0,82,0.00,,,0.00,,2013-01-11 00:03:00,
2013-01-10 19:13:00,74.0,68.0,30.27,East,86,1.0,3.0,82,0.00,,,0.00,,2013-01-11 00:13:00,
2013-01-10 19:23:00,74.0,68.0,30.27,East,86,1.0,3.0,82,0.00,,,0.00,,2013-01-11 00:23:00,
2013-01-10 19:33:00,74.0,68.0,30.26,East,81,1.0,3.0,81,0.00,,,0.00,,2013-01-11 00:33:00,
2013-01-10 19:42:00,74.0,68.0,30.26,East,81,1.0,3.0,81,0.00,,,0.00,,2013-01-11 00:42:00,
2013-01-10 19:53:00,74.0,68.0,30.27,East,80,1.0,5.0,81,0.00,,,0.00,,2013-01-11 00:53:00,
2013-01-10 20:03:00,74.0,68.0,30.27,ESE,111,1.0,3.0,82,0.00,,,0.00,,2013-01-11 01:03:00,
2013-01-10 20:13:00,75.0,68.0,30.27,East,90,1.0,5.0,80,0.00,,,0.00,,2013-01-11 01:13:00,
2013-01-10 20:23:00,75.0,68.0,30.27,East,90,1.0,5.0,80,0.00,,,0.00,,2013-01-11 01:23:00,
2013-01-10 20:34:00,75.0,68.0,30.27,SE,125,1.0,5.0,80,0.00,,,0.00,,2013-01-11 01:34:00,
2013-01-10 20:43:00,75.0,68.0,30.27,SE,125,1.0,5.0,80,0.00,,,0.00,,2013-01-11 01:43:00,
2013-01-10 20:53:00,74.0,67.0,30.27,East,80,0.0,4.0,80,0.00,,,0.00,,2013-01-11 01:53:00,
2013-01-10 21:03:00,74.0,67.0,30.27,East,97,1.0,5.0,79,0.00,,,0.00,,2013-01-11 02:03:00,
2013-01-10 21:13:00,74.0,67.0,30.26,ESE,103,0.0,5.0,79,0.00,,,0.00,,2013-01-11 02:13:00,
2013-01-10 21:23:00,74.0,67.0,30.26,ESE,103,0.0,5.0,79,0.00,,,0.00,,2013-01-11 02:23:00,
2013-01-10 21:33:00,75.0,68.0,30.27,ESE,115,0.0,5.0,79,0.00,,,0.00,,2013-01-11 02:33:00,
2013-01-10 21:43:00,75.0,68.0,30.27,ESE,115,0.0,5.0,79,0.00,,,0.00,,2013-01-11 02:43:00,
2013-01-10 21:53:00,75.0,68.0,30.27,East,79,0.0,5.0,80,0.00,,,0.00,,2013-01-11 02:53:00,
2013-01-10 22:03:00,75.0,68.0,30.27,ESE,105,1.0,5.0,80,0.00,,,0.00,,2013-01-11 03:03:00,
2013-01-10 22:12:00,75.0,68.0,30.27,ENE,75,2.0,5.0,80,0.00,,,0.00,,2013-01-11 03:12:00,
2013-01-10 22:23:00,75.0,68.0,30.27,ENE,75,2.0,5.0,80,0.00,,,0.00,,2013-01-11 03:23:00,
2013-01-10 22:33:00,75.0,67.0,30.27,East,96,1.0,10.0,77,0.00,,,0.00,,2013-01-11 03:33:00,
2013-01-10 22:43:00,75.0,67.0,30.27,East,96,1.0,10.0,77,0.00,,,0.00,,2013-01-11 03:43:00,
2013-01-10 22:53:00,75.0,67.0,30.27,NNE,30,0.0,5.0,77,0.00,,,0.00,,2013-01-11 03:53:00,
2013-01-10 23:02:00,75.0,68.0,30.27,ENE,68,2.0,9.0,78,0.00,,,0.00,,2013-01-11 04:02:00,
2013-01-10 23:12:00,75.0,68.0,30.27,ESE,108,1.0,4.0,79,0.00,,,0.00,,2013-01-11 04:12:00,
2013-01-10 23:22:00,75.0,68.0,30.27,ESE,108,1.0,4.0,79,0.00,,,0.00,,2013-01-11 04:22:00,
2013-01-10 23:33:00,75.0,68.0,30.27,East,82,1.0,7.0,79,0.00,,,0.00,,2013-01-11 04:33:00,
2013-01-10 23:43:00,75.0,68.0,30.27,East,82,1.0,7.0,79,0.00,,,0.00,,2013-01-11 04:43:00,
2013-01-10 23:53:00,75.0,68.0,30.27,ENE,76,3.0,6.0,80,0.00,,,0.00,,2013-01-11 04:53:00,